Time;durP1;ratioP1;P1;durP2;ratioP2;P2;SDS_P1;SDS_P2;PMS_P1;PMS_P2;Temp;Humidity;BMP_temperature;BMP_pressure;BME280_temperature;BME280_humidity;BME280_pressure;Samples;Min_cycle;Max_cycle;Signal;HPM_P1;HPM_P2
2023/03/15 00:01:33;;;;;;;22.20;6.93;;;0.30;99.90;;;;;;5070766;28;20127;-81
2023/03/15 00:03:58;;;;;;;31.80;8.65;;;0.30;99.90;;;;;;5020816;28;20140;-81
2023/03/15 00:06:24;;;;;;;26.27;7.55;;;0.30;99.90;;;;;;5054914;28;20411;-81
2023/03/15 00:08:50;;;;;;;27.77;8.60;;;0.30;99.90;;;;;;5020307;28;20040;-81
2023/03/15 00:11:17;;;;;;;18.20;7.47;;;0.30;99.90;;;;;;5020269;28;20033;-82
2023/03/15 00:13:44;;;;;;;25.48;8.05;;;0.30;99.90;;;;;;5020474;28;20039;-82
2023/03/15 00:16:17;;;;;;;18.05;8.43;;;0.30;99.90;;;;;;5020887;28;20039;-82
2023/03/15 00:18:44;;;;;;;28.67;7.82;;;0.30;99.90;;;;;;5055163;28;20115;-81
2023/03/15 00:21:09;;;;;;;30.60;8.73;;;0.30;99.90;;;;;;5020540;28;20028;-81
2023/03/15 00:23:35;;;;;;;30.30;8.68;;;0.30;99.90;;;;;;5020515;28;20077;-81
2023/03/15 00:26:01;;;;;;;24.35;9.00;;;0.20;99.90;;;;;;5069877;28;20037;-82
2023/03/15 00:28:26;;;;;;;23.15;8.68;;;0.20;99.90;;;;;;5020282;28;20492;-81
2023/03/15 00:31:03;;;;;;;28.15;10.15;;;0.20;99.90;;;;;;5020043;28;20028;-82
2023/03/15 00:33:33;;;;;;;32.42;9.98;;;0.20;99.90;;;;;;5019890;28;20828;-81
2023/03/15 00:36:03;;;;;;;27.88;9.00;;;0.20;99.90;;;;;;5020120;28;20025;-81
2023/03/15 00:38:32;;;;;;;34.33;10.25;;;0.20;99.90;;;;;;5020435;28;20044;-82
2023/03/15 00:41:03;;;;;;;36.42;9.30;;;0.20;99.90;;;;;;5019907;28;20389;-81
2023/03/15 00:43:28;;;;;;;29.40;10.63;;;0.20;99.90;;;;;;5020280;28;20032;-81
2023/03/15 00:45:54;;;;;;;40.20;10.13;;;0.20;99.90;;;;;;5019338;28;20022;-81
2023/03/15 00:48:20;;;;;;;23.70;8.00;;;0.10;99.90;;;;;;5020063;28;20055;-81
2023/03/15 00:50:45;;;;;;;21.83;8.70;;;0.10;99.90;;;;;;5036547;28;20032;-81
2023/03/15 00:53:11;;;;;;;27.20;9.02;;;0.10;99.90;;;;;;5070104;28;20037;-82
2023/03/15 00:55:37;;;;;;;22.65;7.50;;;0.10;99.90;;;;;;5020158;28;20457;-82
2023/03/15 00:58:02;;;;;;;30.50;8.55;;;0.00;99.90;;;;;;5035790;28;20044;-82
2023/03/15 01:00:53;;;;;;;21.40;7.95;;;0.00;99.90;;;;;;5035526;28;20396;-81
2023/03/15 01:03:19;;;;;;;29.85;8.02;;;-0.10;99.90;;;;;;5069027;28;20029;-82
2023/03/15 01:05:45;;;;;;;26.05;7.10;;;-0.10;99.90;;;;;;5019422;28;20048;-81
2023/03/15 01:08:11;;;;;;;26.55;7.38;;;-0.20;99.90;;;;;;5019502;28;20037;-82
2023/03/15 01:10:36;;;;;;;30.38;9.10;;;-0.20;99.90;;;;;;5035750;28;20783;-81
2023/03/15 01:13:02;;;;;;;20.17;7.75;;;-0.20;99.90;;;;;;5036249;28;20384;-81
2023/03/15 01:15:29;;;;;;;28.38;7.82;;;-0.30;99.90;;;;;;5019554;28;20035;-82
2023/03/15 01:17:55;;;;;;;25.33;8.60;;;-0.30;99.90;;;;;;5069032;28;20124;-82
2023/03/15 01:20:23;;;;;;;25.00;8.30;;;-0.30;99.90;;;;;;5035073;28;20059;-81
2023/03/15 01:22:49;;;;;;;31.20;8.18;;;-0.30;99.90;;;;;;5069002;28;20052;-82
2023/03/15 01:25:14;;;;;;;37.30;9.25;;;-0.30;99.90;;;;;;5019731;28;20043;-81
2023/03/15 01:27:41;;;;;;;29.67;8.93;;;-0.40;99.90;;;;;;5019423;28;20116;-81
2023/03/15 01:30:08;;;;;;;26.02;8.15;;;-0.40;99.90;;;;;;5019017;28;20399;-81
2023/03/15 01:32:33;;;;;;;32.45;9.85;;;-0.40;99.90;;;;;;5069003;28;20429;-81
2023/03/15 01:34:59;;;;;;;36.83;10.85;;;-0.40;99.90;;;;;;5019238;28;20067;-82
2023/03/15 01:37:25;;;;;;;25.90;9.02;;;-0.40;99.90;;;;;;5019161;28;20045;-81
2023/03/15 01:39:51;;;;;;;43.97;9.02;;;-0.40;99.90;;;;;;5019149;28;20040;-81
2023/03/15 01:42:16;;;;;;;35.83;10.05;;;-0.40;99.90;;;;;;5019262;28;20472;-82
2023/03/15 01:44:58;;;;;;;26.88;9.15;;;-0.40;99.90;;;;;;5019356;28;20743;-81
2023/03/15 01:47:25;;;;;;;34.70;9.68;;;-0.40;99.90;;;;;;5018974;28;20116;-82
2023/03/15 01:50:03;;;;;;;37.03;8.93;;;-0.40;99.90;;;;;;5018578;28;20021;-82
2023/03/15 01:52:36;;;;;;;29.02;7.55;;;-0.50;99.90;;;;;;5018969;28;20025;-82
2023/03/15 01:55:18;;;;;;;34.53;8.07;;;-0.50;99.90;;;;;;5035849;28;20033;-81
2023/03/15 01:58:05;;;;;;;30.85;7.18;;;-0.60;99.90;;;;;;5020652;28;20040;-81
2023/03/15 02:00:32;;;;;;;28.80;7.60;;;-0.60;99.90;;;;;;5034880;28;20025;-81
2023/03/15 02:03:18;;;;;;;20.67;7.95;;;-0.70;99.90;;;;;;5034835;28;20435;-82
2023/03/15 02:05:53;;;;;;;33.65;6.93;;;-0.70;99.90;;;;;;5034888;28;20120;-81
2023/03/15 02:08:31;;;;;;;21.48;6.78;;;-0.70;99.90;;;;;;5067571;28;20112;-82
2023/03/15 02:11:00;;;;;;;29.80;7.35;;;-0.70;99.90;;;;;;5034529;28;20028;-81
2023/03/15 02:13:29;;;;;;;23.52;7.28;;;-0.80;99.90;;;;;;5018526;28;20029;-81
2023/03/15 02:15:58;;;;;;;18.75;6.57;;;-0.70;99.90;;;;;;5035280;28;20079;-82
2023/03/15 02:18:34;;;;;;;28.08;7.10;;;-0.80;99.90;;;;;;5019682;28;20111;-82
2023/03/15 02:21:34;;;;;;;31.35;7.55;;;-0.80;99.90;;;;;;5068210;28;20021;-82
2023/03/15 02:24:09;;;;;;;20.10;7.53;;;-0.90;99.90;;;;;;5018437;28;20786;-81
2023/03/15 02:26:45;;;;;;;31.15;8.98;;;-1.00;99.90;;;;;;5034933;28;20033;-81
2023/03/15 02:29:11;;;;;;;28.88;7.70;;;-1.00;99.90;;;;;;5034857;28;20067;-82
2023/03/15 02:31:38;;;;;;;31.42;7.25;;;-1.00;99.90;;;;;;5018690;28;20053;-82
2023/03/15 02:34:06;;;;;;;36.70;8.80;;;-1.10;99.90;;;;;;5068158;28;20025;-82
2023/03/15 02:36:33;;;;;;;38.75;9.93;;;-1.10;99.90;;;;;;5018291;28;20029;-82
2023/03/15 02:38:59;;;;;;;37.17;8.18;;;-1.10;99.90;;;;;;5068290;28;20051;-82
2023/03/15 02:41:31;;;;;;;40.28;8.60;;;-1.10;99.90;;;;;;5067803;28;20035;-82
2023/03/15 02:44:10;;;;;;;35.70;9.80;;;-1.10;99.90;;;;;;5018745;28;20116;-81
2023/03/15 02:46:37;;;;;;;37.10;10.18;;;-1.00;99.90;;;;;;5017969;28;20029;-81
2023/03/15 02:49:05;;;;;;;30.13;9.13;;;-1.00;99.90;;;;;;5018187;28;20535;-82
2023/03/15 02:51:32;;;;;;;34.47;8.88;;;-1.00;99.90;;;;;;5067619;28;20017;-82
2023/03/15 02:53:58;;;;;;;38.00;9.80;;;-1.10;99.90;;;;;;5017724;28;20024;-82
2023/03/15 02:56:24;;;;;;;42.30;10.38;;;-1.10;99.90;;;;;;5033833;28;20071;-81
2023/03/15 02:58:50;;;;;;;39.42;11.50;;;-1.20;99.90;;;;;;5016838;28;20029;-82
2023/03/15 03:01:17;;;;;;;40.40;12.82;;;-1.20;99.90;;;;;;5017270;28;20666;-82
2023/03/15 03:03:45;;;;;;;51.03;13.63;;;-1.20;99.90;;;;;;5033944;28;20033;-82
2023/03/15 03:06:13;;;;;;;50.42;15.57;;;-1.20;99.90;;;;;;5017644;28;20029;-81
2023/03/15 03:08:39;;;;;;;50.72;15.15;;;-1.20;99.90;;;;;;5020245;28;20029;-81
2023/03/15 03:11:07;;;;;;;54.00;18.08;;;-1.10;99.90;;;;;;5022066;28;20021;-82
2023/03/15 03:13:34;;;;;;;53.42;19.73;;;-1.00;99.90;;;;;;5038484;28;20025;-82
2023/03/15 03:16:02;;;;;;;52.97;18.75;;;-1.00;99.90;;;;;;5022205;28;20029;-81
2023/03/15 03:18:34;;;;;;;49.08;16.70;;;-1.00;99.90;;;;;;5038214;28;20025;-82
2023/03/15 03:21:02;;;;;;;46.00;17.83;;;-1.00;99.90;;;;;;5038175;28;20511;-82
2023/03/15 03:23:29;;;;;;;54.03;16.95;;;-1.10;99.90;;;;;;5038240;28;20033;-82
2023/03/15 03:26:17;;;;;;;54.92;20.30;;;-1.20;99.90;;;;;;5021764;28;20055;-82
2023/03/15 03:28:46;;;;;;;143.20;54.17;;;-1.30;99.90;;;;;;5038005;28;20059;-82
2023/03/15 03:31:20;;;;;;;149.07;52.05;;;-1.40;99.90;;;;;;5021168;28;20025;-82
2023/03/15 03:33:47;;;;;;;114.88;37.53;;;-1.50;99.90;;;;;;5021533;28;20048;-82
2023/03/15 03:36:13;;;;;;;157.25;56.05;;;-1.60;99.90;;;;;;5021129;28;20439;-81
2023/03/15 03:38:41;;;;;;;87.18;33.95;;;-1.70;99.90;;;;;;5021464;28;20810;-82
2023/03/15 03:41:09;;;;;;;60.33;23.13;;;-1.80;99.90;;;;;;5020971;28;20033;-82
2023/03/15 03:43:36;;;;;;;54.00;19.88;;;-1.80;99.90;;;;;;5037168;28;20408;-81
2023/03/15 03:46:03;;;;;;;51.38;18.42;;;-1.80;99.90;;;;;;5036980;28;20087;-81
2023/03/15 03:48:30;;;;;;;51.97;15.73;;;-1.70;99.90;;;;;;5037249;28;20037;-82
2023/03/15 03:50:57;;;;;;;49.72;17.48;;;-1.70;99.90;;;;;;5037479;28;20087;-80
2023/03/15 03:53:23;;;;;;;41.47;14.63;;;-1.70;99.90;;;;;;5021149;28;20036;-82
2023/03/15 03:55:48;;;;;;;48.20;14.10;;;-1.60;99.90;;;;;;5037601;28;20153;-82
2023/03/15 03:58:47;;;;;;;38.37;13.60;;;-1.50;99.90;;;;;;5021818;28;20083;-82
2023/03/15 04:01:17;;;;;;;37.40;12.93;;;-1.40;99.90;;;;;;5021268;28;20049;-82
2023/03/15 04:03:47;;;;;;;40.10;12.40;;;-1.40;99.90;;;;;;5037296;28;20029;-82
2023/03/15 04:06:17;;;;;;;38.53;12.80;;;-1.50;99.90;;;;;;5036969;28;20033;-82
2023/03/15 04:08:45;;;;;;;35.03;12.10;;;-1.50;99.90;;;;;;5037375;28;20033;-82
2023/03/15 04:11:16;;;;;;;39.55;12.20;;;-1.50;99.90;;;;;;5021959;28;20025;-82
2023/03/15 04:13:44;;;;;;;43.70;11.68;;;-1.60;99.90;;;;;;5021162;28;20028;-82
2023/03/15 04:16:10;;;;;;;43.83;12.52;;;-1.60;99.90;;;;;;5020814;28;20044;-82
2023/03/15 04:18:51;;;;;;;34.50;11.05;;;-1.60;99.90;;;;;;5022190;28;20117;-81
2023/03/15 04:21:21;;;;;;;37.35;11.35;;;-1.60;99.90;;;;;;5020155;28;20120;-82
2023/03/15 04:23:48;;;;;;;46.35;11.82;;;-1.60;99.90;;;;;;5020612;28;20549;-82
2023/03/15 04:26:34;;;;;;;39.22;11.15;;;-1.70;99.90;;;;;;5039880;28;20056;-82
2023/03/15 04:29:31;;;;;;;39.90;10.80;;;-1.70;99.90;;;;;;5024701;28;20025;-82
2023/03/15 04:32:16;;;;;;;38.85;12.05;;;-1.80;99.90;;;;;;5022965;28;20076;-82
2023/03/15 04:35:11;;;;;;;30.77;10.35;;;-1.80;99.90;;;;;;5035859;28;20426;-82
2023/03/15 04:37:44;;;;;;;32.85;9.52;;;-1.90;99.90;;;;;;5036727;28;20040;-82
2023/03/15 04:40:41;;;;;;;29.20;9.55;;;-1.90;99.90;;;;;;5000034;28;20137;-81
2023/03/15 04:43:26;;;;;;;30.23;8.85;;;-2.00;99.90;;;;;;5039358;28;20087;-82
2023/03/15 04:46:07;;;;;;;;;;;-2.00;99.90;;;;;;5022389;28;20039;-82
2023/03/15 04:48:52;;;;;;;37.00;12.88;;;-2.10;99.90;;;;;;5039207;28;19916;-82
2023/03/15 04:51:38;;;;;;;49.03;14.38;;;-2.30;99.90;;;;;;5031958;28;20033;-82
2023/03/15 04:54:16;;;;;;;38.30;13.68;;;-2.40;99.90;;;;;;5021688;28;20025;-82
2023/03/15 04:57:11;;;;;;;43.22;14.15;;;-2.40;99.90;;;;;;5044796;28;20033;-82
2023/03/15 05:00:09;;;;;;;40.13;14.20;;;-2.50;99.90;;;;;;5022790;28;20365;-82
2023/03/15 05:02:56;;;;;;;43.42;14.70;;;-2.40;99.90;;;;;;5038996;28;20115;-82
2023/03/15 05:05:44;;;;;;;45.65;14.43;;;-2.40;99.90;;;;;;5022367;28;20032;-82
2023/03/15 05:08:39;;;;;;;51.88;15.50;;;-2.60;99.90;;;;;;5012296;28;20470;-82
2023/03/15 05:11:23;;;;;;;54.22;17.02;;;-2.60;99.90;;;;;;5012456;28;20052;-82
2023/03/15 05:14:09;;;;;;;60.00;19.08;;;-2.50;99.90;;;;;;5022598;28;20554;-82
2023/03/15 05:16:54;;;;;;;62.38;20.27;;;-2.30;99.90;;;;;;5038996;28;20120;-82
2023/03/15 05:19:47;;;;;;;75.13;20.90;;;-2.20;99.90;;;;;;5049384;28;20029;-82
2023/03/15 05:22:36;;;;;;;73.68;23.88;;;-2.00;99.90;;;;;;5020395;28;20412;-82
2023/03/15 05:25:23;;;;;;;96.85;32.20;;;-1.90;99.90;;;;;;5017879;28;20029;-82
2023/03/15 05:28:07;;;;;;;70.28;26.23;;;-1.90;99.90;;;;;;5038041;28;20212;-82
2023/03/15 05:30:52;;;;;;;100.50;32.83;;;-1.90;99.90;;;;;;5053666;28;20039;-82
2023/03/15 05:33:46;;;;;;;102.07;33.95;;;-1.80;99.90;;;;;;5035628;28;20492;-82
2023/03/15 05:36:30;;;;;;;84.38;25.38;;;-1.80;99.90;;;;;;5035668;28;20033;-82
2023/03/15 05:39:34;;;;;;;74.43;24.70;;;-1.70;99.90;;;;;;5043841;28;20045;-82
2023/03/15 05:42:06;;;;;;;84.00;24.88;;;-1.70;99.90;;;;;;5037351;28;20124;-84
2023/03/15 05:44:56;;;;;;;74.50;25.75;;;-1.70;99.90;;;;;;5033684;28;20036;-85
2023/03/15 05:47:56;;;;;;;74.63;24.15;;;-1.80;99.90;;;;;;4972554;28;20042;-85
2023/03/15 05:50:51;;;;;;;81.25;24.17;;;-1.80;99.90;;;;;;4981636;28;20035;-85
2023/03/15 05:53:25;;;;;;;81.97;26.10;;;-1.70;99.90;;;;;;5020260;28;20033;-86
2023/03/15 05:56:09;;;;;;;75.45;23.65;;;-1.60;99.90;;;;;;5038338;28;20071;-85
2023/03/15 05:58:55;;;;;;;69.95;22.63;;;-1.60;99.90;;;;;;5038478;28;20058;-86
2023/03/15 06:01:46;;;;;;;;;;;-1.60;99.90;;;;;;5037917;28;20488;-85
2023/03/15 06:04:20;;;;;;;77.47;23.15;;;-1.40;99.90;;;;;;5035609;28;19970;-85
2023/03/15 06:06:46;;;;;;;79.05;24.73;;;-1.30;99.90;;;;;;5019106;28;20388;-85
2023/03/15 06:09:13;;;;;;;89.22;25.00;;;-1.30;99.90;;;;;;5019154;28;20021;-85
2023/03/15 06:11:39;;;;;;;74.88;25.23;;;-1.20;99.90;;;;;;5020416;28;20053;-84
2023/03/15 06:14:06;;;;;;;73.38;24.50;;;-1.10;99.90;;;;;;5038205;28;20033;-84
2023/03/15 06:17:03;;;;;;;68.68;23.52;;;-1.00;99.90;;;;;;5041620;28;20181;-85
2023/03/15 06:19:30;;;;;;;69.80;24.75;;;-1.00;99.90;;;;;;5038930;28;20115;-85
2023/03/15 06:21:55;;;;;;;68.57;24.30;;;-1.00;99.90;;;;;;5038940;28;20105;-85
2023/03/15 06:24:28;;;;;;;76.95;24.10;;;-1.00;99.90;;;;;;5039730;28;20028;-85
2023/03/15 06:26:55;;;;;;;68.60;24.92;;;-0.90;99.90;;;;;;5088628;28;20031;-85
2023/03/15 06:29:22;;;;;;;73.07;24.52;;;-0.80;99.90;;;;;;5038914;28;20016;-85
2023/03/15 06:31:49;;;;;;;87.35;25.60;;;-0.60;99.90;;;;;;5039080;28;20078;-85
2023/03/15 06:34:16;;;;;;;63.85;23.65;;;-0.60;99.90;;;;;;5038927;28;20028;-84
2023/03/15 06:36:43;;;;;;;68.28;24.05;;;-0.50;99.90;;;;;;5038353;28;20538;-84
2023/03/15 06:39:11;;;;;;;70.47;24.45;;;-0.40;99.90;;;;;;5038242;28;20032;-84
2023/03/15 06:41:40;;;;;;;70.05;23.25;;;-0.30;99.90;;;;;;5037791;28;20522;-85
2023/03/15 06:44:11;;;;;;;72.55;22.15;;;-0.20;99.90;;;;;;5038165;28;20031;-85
2023/03/15 06:46:38;;;;;;;60.45;23.50;;;-0.10;99.90;;;;;;5088085;28;20024;-85
2023/03/15 06:49:05;;;;;;;64.00;21.80;;;-0.10;99.90;;;;;;5054524;28;20032;-85
2023/03/15 06:51:31;;;;;;;69.13;25.40;;;-0.10;99.90;;;;;;5053664;28;20073;-85
2023/03/15 06:53:56;;;;;;;58.13;20.80;;;-0.10;99.90;;;;;;5037572;28;20040;-85
2023/03/15 06:56:59;;;;;;;63.95;23.40;;;0.00;99.90;;;;;;5037653;28;20028;-86
2023/03/15 06:59:25;;;;;;;65.65;21.95;;;0.00;99.90;;;;;;5037316;28;20060;-85
2023/03/15 07:01:51;;;;;;;60.88;24.00;;;0.20;99.90;;;;;;5054142;28;20029;-85
2023/03/15 07:04:16;;;;;;;68.57;22.70;;;0.30;99.90;;;;;;5037661;28;20028;-85
2023/03/15 07:06:42;;;;;;;54.50;21.15;;;0.30;99.90;;;;;;5037049;28;20128;-85
2023/03/15 07:09:08;;;;;;;44.53;19.13;;;0.30;99.90;;;;;;5054197;28;20028;-85
2023/03/15 07:12:11;;;;;;;44.83;20.00;;;0.40;99.90;;;;;;5038323;28;20028;-85
2023/03/15 07:14:37;;;;;;;47.90;17.83;;;0.40;99.90;;;;;;5038192;28;20020;-85
2023/03/15 07:17:03;;;;;;;50.10;16.58;;;0.40;99.90;;;;;;5054390;28;20039;-85
2023/03/15 07:19:29;;;;;;;37.38;14.23;;;0.30;99.90;;;;;;5037819;28;20090;-85
2023/03/15 07:21:55;;;;;;;28.58;12.77;;;0.20;99.90;;;;;;5037831;28;20032;-85
2023/03/15 07:24:33;;;;;;;31.55;12.88;;;0.20;99.90;;;;;;5054887;28;20050;-85
2023/03/15 07:26:58;;;;;;;34.70;12.48;;;0.20;99.90;;;;;;5054662;28;20029;-85
2023/03/15 07:29:24;;;;;;;31.55;12.20;;;0.30;99.90;;;;;;5037579;28;20031;-84
2023/03/15 07:31:51;;;;;;;26.95;13.20;;;0.40;99.90;;;;;;5037243;28;20146;-84
2023/03/15 07:34:17;;;;;;;27.52;10.05;;;0.40;99.90;;;;;;5037959;28;20029;-85
2023/03/15 07:36:42;;;;;;;23.90;9.32;;;0.50;99.90;;;;;;5037680;28;20119;-85
2023/03/15 07:39:09;;;;;;;29.17;9.85;;;0.50;99.90;;;;;;5054359;28;20064;-85
2023/03/15 07:41:35;;;;;;;32.50;9.95;;;0.60;99.90;;;;;;5053754;28;20196;-85
2023/03/15 07:44:12;;;;;;;28.35;9.95;;;0.60;99.90;;;;;;5054247;28;20077;-85
2023/03/15 07:46:37;;;;;;;31.63;9.45;;;0.60;99.90;;;;;;5054124;28;20036;-85
2023/03/15 07:49:03;;;;;;;25.92;8.23;;;0.70;99.90;;;;;;5053568;28;20028;-85
2023/03/15 07:51:29;;;;;;;22.95;7.78;;;0.80;99.90;;;;;;5070416;28;20063;-85
2023/03/15 07:53:54;;;;;;;33.15;9.18;;;0.80;99.90;;;;;;5071043;28;20037;-86
2023/03/15 07:56:20;;;;;;;16.55;7.57;;;0.60;99.90;;;;;;5057221;28;20024;-86
2023/03/15 07:58:46;;;;;;;33.90;6.85;;;0.50;99.90;;;;;;5056783;28;20062;-86
2023/03/15 08:01:12;;;;;;;29.35;6.63;;;0.30;99.90;;;;;;5057019;28;20372;-86
2023/03/15 08:03:37;;;;;;;23.30;6.80;;;0.20;99.90;;;;;;5057550;28;20522;-85
2023/03/15 08:06:03;;;;;;;22.67;6.05;;;0.20;99.90;;;;;;5056932;28;20062;-85
2023/03/15 08:08:29;;;;;;;22.13;6.72;;;0.30;99.90;;;;;;5057536;28;20391;-86
2023/03/15 08:10:55;;;;;;;28.13;6.75;;;0.30;99.90;;;;;;5057341;28;20028;-86
2023/03/15 08:13:21;;;;;;;21.52;7.50;;;0.30;99.90;;;;;;5057272;28;20484;-86
2023/03/15 08:15:47;;;;;;;27.23;7.60;;;0.20;99.90;;;;;;5057495;28;20028;-86
2023/03/15 08:18:13;;;;;;;31.17;7.82;;;0.10;99.90;;;;;;5057194;28;20029;-86
2023/03/15 08:20:39;;;;;;;19.58;7.07;;;0.10;99.90;;;;;;5057149;28;20033;-86
2023/03/15 08:23:42;;;;;;;21.58;7.25;;;0.10;99.90;;;;;;5056993;28;20044;-85
2023/03/15 08:26:08;;;;;;;24.10;7.80;;;0.20;99.90;;;;;;5040833;28;20085;-86
2023/03/15 08:28:34;;;;;;;20.73;5.88;;;0.20;99.90;;;;;;5057280;28;20476;-86
2023/03/15 08:30:59;;;;;;;22.17;8.43;;;0.30;99.90;;;;;;5056756;28;20032;-85
2023/03/15 08:33:28;;;;;;;21.75;6.70;;;0.30;99.90;;;;;;5057149;28;20115;-85
2023/03/15 08:35:55;;;;;;;21.08;7.68;;;0.20;99.90;;;;;;5056407;28;20498;-85
2023/03/15 08:39:13;;;;;;;28.35;7.35;;;0.20;99.90;;;;;;5072976;28;20040;-85
2023/03/15 08:41:40;;;;;;;33.63;10.30;;;0.20;99.90;;;;;;5056731;28;20411;-86
2023/03/15 08:44:06;;;;;;;35.17;12.00;;;0.30;99.90;;;;;;5039507;28;20040;-85
2023/03/15 08:46:32;;;;;;;20.55;6.43;;;0.30;99.90;;;;;;5039837;28;20514;-85
2023/03/15 08:48:58;;;;;;;27.30;7.22;;;0.50;99.90;;;;;;5057007;28;20028;-86
2023/03/15 08:51:25;;;;;;;26.33;7.47;;;0.80;99.90;;;;;;5056796;28;20021;-86
2023/03/15 08:53:51;;;;;;;20.08;7.20;;;0.80;99.90;;;;;;5056373;28;20422;-86
2023/03/15 08:56:18;;;;;;;21.60;6.70;;;0.90;99.90;;;;;;5057042;28;20032;-85
2023/03/15 08:58:44;;;;;;;22.02;7.28;;;1.10;99.90;;;;;;5057074;28;20111;-86
2023/03/15 09:01:11;;;;;;;21.95;7.05;;;1.30;99.90;;;;;;5056898;28;20032;-86
2023/03/15 09:03:37;;;;;;;16.45;6.82;;;1.10;99.90;;;;;;5056588;28;20024;-86
2023/03/15 09:06:03;;;;;;;23.08;7.53;;;1.20;99.90;;;;;;5056309;28;20028;-86
2023/03/15 09:08:34;;;;;;;24.98;7.25;;;1.20;99.90;;;;;;5056929;28;20032;-85
2023/03/15 09:11:12;;;;;;;17.88;7.13;;;1.10;99.90;;;;;;5056765;28;20498;-86
2023/03/15 09:13:47;;;;;;;25.00;7.88;;;1.00;99.90;;;;;;5057454;28;20039;-86
2023/03/15 09:16:19;;;;;;;18.13;7.90;;;1.00;99.90;;;;;;5057609;28;20024;-86
2023/03/15 09:19:00;;;;;;;21.13;7.25;;;1.00;99.90;;;;;;5057454;28;20495;-85
2023/03/15 09:21:35;;;;;;;37.53;8.55;;;1.00;99.90;;;;;;5056861;28;20055;-85
2023/03/15 09:24:21;;;;;;;24.42;8.43;;;1.10;99.90;;;;;;5056848;28;20035;-86
2023/03/15 09:27:07;;;;;;;29.00;8.70;;;1.00;99.90;;;;;;5037036;28;20036;-85
2023/03/15 09:29:36;;;;;;;26.65;9.40;;;1.00;99.90;;;;;;5056290;28;20115;-85
2023/03/15 09:32:04;;;;;;;25.17;8.45;;;0.90;99.90;;;;;;5073551;28;20028;-86
2023/03/15 09:34:30;;;;;;;18.25;7.07;;;0.80;99.90;;;;;;5056161;28;20466;-86
2023/03/15 09:36:58;;;;;;;20.52;7.15;;;0.80;99.90;;;;;;5055925;28;20086;-85
2023/03/15 09:39:24;;;;;;;19.50;8.65;;;0.70;99.90;;;;;;5061352;28;20067;-92
2023/03/15 09:41:53;;;;;;;19.05;7.25;;;0.80;99.90;;;;;;5062011;28;20029;-94
2023/03/15 09:44:40;;;;;;;31.90;7.28;;;0.90;99.90;;;;;;5062290;28;20102;-92
2023/03/15 09:47:27;;;;;;;13.75;7.10;;;1.30;99.90;;;;;;5079766;28;20060;-92
2023/03/15 09:49:58;;;;;;;23.40;7.10;;;1.50;99.90;;;;;;5096031;28;20039;-93
2023/03/15 09:52:50;;;;;;;22.23;7.13;;;1.50;99.90;;;;;;5062377;28;20033;-93
2023/03/15 09:55:18;;;;;;;;;;;1.40;99.90;;;;;;5047493;28;20037;-93
2023/03/15 09:57:47;;;;;;;18.33;7.68;;;1.20;99.90;;;;;;5077621;28;19930;-93
2023/03/15 10:00:25;;;;;;;21.77;7.65;;;1.10;99.90;;;;;;5060282;28;20051;-92
2023/03/15 10:03:00;;;;;;;16.30;7.68;;;0.90;99.90;;;;;;5044215;28;20033;-92
2023/03/15 10:05:40;;;;;;;15.43;7.80;;;0.80;99.90;;;;;;5059942;28;20029;-93
2023/03/15 10:08:16;;;;;;;15.57;6.97;;;1.00;99.90;;;;;;5076385;28;20488;-93
2023/03/15 10:10:59;;;;;;;15.98;7.65;;;1.00;99.90;;;;;;5059708;28;20028;-92
2023/03/15 10:13:37;;;;;;;8.70;4.95;;;1.10;99.90;;;;;;5059058;28;20024;-91
2023/03/15 10:16:21;;;;;;;32.20;12.43;;;1.30;99.90;;;;;;5075428;28;20036;-92
2023/03/15 10:19:26;;;;;;;15.75;7.32;;;1.20;99.90;;;;;;5075440;28;20048;-92
2023/03/15 10:22:23;;;;;;;15.77;5.32;;;0.90;99.90;;;;;;5040874;28;20498;-90
2023/03/15 10:25:10;;;;;;;12.70;5.40;;;0.90;99.90;;;;;;5058895;28;20056;-92
2023/03/15 10:27:59;;;;;;;9.18;5.30;;;1.10;99.90;;;;;;5041831;28;20430;-92
2023/03/15 10:30:28;;;;;;;13.77;5.35;;;1.20;99.90;;;;;;5058539;28;20111;-92
2023/03/15 10:32:59;;;;;;;9.63;5.20;;;1.30;99.90;;;;;;5059152;28;20024;-93
2023/03/15 10:35:25;;;;;;;12.38;5.10;;;1.70;99.90;;;;;;5057993;28;20475;-91
2023/03/15 10:37:50;;;;;;;8.90;4.95;;;1.90;99.90;;;;;;5041339;28;20068;-92
2023/03/15 10:40:37;;;;;;;19.35;6.68;;;2.20;99.90;;;;;;5058274;28;20028;-93
2023/03/15 10:43:13;;;;;;;10.23;4.90;;;2.00;99.90;;;;;;5041336;28;20060;-92
2023/03/15 10:45:39;;;;;;;11.23;6.05;;;1.70;99.90;;;;;;5057770;28;20033;-91
2023/03/15 10:48:04;;;;;;;14.50;5.95;;;1.70;99.90;;;;;;5057676;28;20028;-92
2023/03/15 10:50:32;;;;;;;14.23;7.55;;;1.70;99.90;;;;;;5057861;28;20039;-93
2023/03/15 10:53:09;;;;;;;11.65;6.63;;;1.50;99.90;;;;;;5057359;28;20029;-92
2023/03/15 10:55:41;;;;;;;12.65;5.50;;;1.40;99.90;;;;;;5075517;28;20485;-91
2023/03/15 10:58:40;;;;;;;11.85;6.70;;;1.20;99.90;;;;;;5075105;28;20238;-92
2023/03/15 11:01:11;;;;;;;10.52;5.90;;;1.20;99.90;;;;;;5040831;28;20573;-91
2023/03/15 11:03:37;;;;;;;11.10;5.72;;;1.30;99.90;;;;;;5057423;28;20592;-93
2023/03/15 11:06:19;;;;;;;7.05;4.78;;;1.60;99.90;;;;;;5057670;28;20066;-92
2023/03/15 11:08:44;;;;;;;12.23;5.45;;;1.70;99.90;;;;;;5057811;28;20480;-93
2023/03/15 11:11:10;;;;;;;7.82;4.70;;;1.70;99.90;;;;;;5074092;28;20036;-91
2023/03/15 11:13:39;;;;;;;6.85;4.55;;;1.80;99.90;;;;;;5076866;28;20456;-92
2023/03/15 11:16:13;;;;;;;11.15;5.00;;;1.80;99.90;;;;;;5057998;28;20059;-92
2023/03/15 11:18:53;;;;;;;9.82;5.68;;;1.70;99.90;;;;;;5040263;28;20068;-91
2023/03/15 11:21:25;;;;;;;11.32;5.97;;;1.40;99.90;;;;;;5057118;28;20032;-92
2023/03/15 11:23:52;;;;;;;14.43;6.65;;;1.50;99.90;;;;;;5058111;28;20542;-92
2023/03/15 11:26:25;;;;;;;20.65;9.60;;;1.20;99.90;;;;;;5056847;28;20029;-92
2023/03/15 11:29:02;;;;;;;13.10;7.50;;;1.20;99.90;;;;;;5057390;28;20032;-92
2023/03/15 11:31:30;;;;;;;10.60;5.80;;;1.10;99.90;;;;;;5077636;28;20078;-92
2023/03/15 11:34:17;;;;;;;21.02;8.77;;;1.10;99.90;;;;;;5060889;28;20032;-92
2023/03/15 11:36:46;;;;;;;22.52;9.68;;;1.20;99.90;;;;;;5044173;28;20138;-92
2023/03/15 11:39:18;;;;;;;10.85;6.50;;;1.20;99.90;;;;;;5060208;28;20458;-93
2023/03/15 11:41:53;;;;;;;14.30;8.02;;;1.10;99.90;;;;;;5060066;28;20365;-92
2023/03/15 11:44:44;;;;;;;17.25;9.85;;;1.20;99.90;;;;;;5060433;28;20086;-91
2023/03/15 11:47:29;;;;;;;17.13;7.78;;;1.40;99.90;;;;;;5060693;28;20036;-92
2023/03/15 11:49:57;;;;;;;19.38;10.52;;;1.50;99.90;;;;;;5060431;28;20621;-93
2023/03/15 11:52:28;;;;;;;19.92;9.55;;;1.40;99.90;;;;;;5061319;28;20182;-91
2023/03/15 11:55:00;;;;;;;12.98;7.75;;;1.40;99.90;;;;;;5061328;28;20036;-93
2023/03/15 11:57:35;;;;;;;21.55;12.93;;;1.30;99.90;;;;;;5061240;28;20029;-92
2023/03/15 12:00:25;;;;;;;23.92;11.82;;;1.30;99.90;;;;;;5077388;28;20430;-92
2023/03/15 12:02:56;;;;;;;26.50;13.43;;;1.20;99.90;;;;;;5077608;28;20498;-93
2023/03/15 12:05:49;;;;;;;34.08;16.10;;;1.30;99.90;;;;;;5060663;28;20029;-92
2023/03/15 12:08:18;;;;;;;20.02;11.20;;;1.30;99.90;;;;;;5044082;28;20083;-92
2023/03/15 12:10:46;;;;;;;40.17;19.45;;;1.30;99.90;;;;;;5075448;28;20036;-86
2023/03/15 12:13:30;;;;;;;49.33;25.52;;;1.30;99.90;;;;;;5075808;28;20460;-86
2023/03/15 12:15:57;;;;;;;36.85;17.45;;;1.30;99.90;;;;;;5041016;28;20033;-86
2023/03/15 12:18:42;;;;;;;26.83;15.38;;;1.40;99.90;;;;;;5075298;28;20415;-86
2023/03/15 12:21:19;;;;;;;22.23;12.90;;;1.40;99.90;;;;;;5073861;28;20032;-86
2023/03/15 12:23:56;;;;;;;22.67;13.25;;;1.40;99.90;;;;;;5090895;28;20028;-86
2023/03/15 12:26:40;;;;;;;20.23;9.65;;;1.60;99.90;;;;;;5074065;28;20369;-86
2023/03/15 12:29:09;;;;;;;22.30;13.77;;;1.50;99.90;;;;;;5091263;28;20032;-86
2023/03/15 12:31:49;;;;;;;29.67;12.70;;;1.70;99.90;;;;;;5074049;28;20036;-87
2023/03/15 12:34:24;;;;;;;17.80;10.05;;;1.80;99.90;;;;;;5074189;28;20600;-86
2023/03/15 12:36:54;;;;;;;18.63;10.25;;;1.90;99.90;;;;;;5041000;28;20480;-86
2023/03/15 12:39:39;;;;;;;20.50;10.60;;;2.00;99.90;;;;;;5040505;28;20064;-86
2023/03/15 12:42:05;;;;;;;20.83;9.98;;;2.10;99.90;;;;;;5039894;28;20708;-86
2023/03/15 12:44:39;;;;;;;26.02;13.05;;;2.10;99.90;;;;;;5056972;28;20054;-86
2023/03/15 12:47:07;;;;;;;20.33;10.13;;;2.00;99.90;;;;;;5090476;28;20032;-86
2023/03/15 12:49:38;;;;;;;50.55;15.32;;;2.00;99.90;;;;;;5056752;28;20052;-86
2023/03/15 12:52:10;;;;;;;;;;;2.00;99.90;;;;;;5057459;28;20032;-86
2023/03/15 12:54:44;;;;;;;21.90;12.30;;;2.20;99.90;;;;;;5073278;28;19919;-86
2023/03/15 12:57:13;;;;;;;19.90;11.10;;;2.30;99.90;;;;;;5090287;28;20036;-85
2023/03/15 12:59:50;;;;;;;83.10;30.63;;;2.30;99.90;;;;;;5056932;28;20124;-86
2023/03/15 13:02:41;;;;;;;32.85;12.63;;;2.40;99.90;;;;;;5039858;28;20036;-86
2023/03/15 13:05:29;;;;;;;25.35;11.43;;;2.60;99.90;;;;;;5039826;28;20422;-86
2023/03/15 13:08:21;;;;;;;50.53;19.17;;;2.80;99.90;;;;;;5039904;28;20040;-86
2023/03/15 13:10:50;;;;;;;30.98;13.93;;;2.70;99.90;;;;;;5039284;28;20693;-85